Polk, Missouri
Current Conditions -  °F | °C
As of 11:09 AM on Sunday 23 Nov 2014 (Local Time) from KSGF Reporting Station
Haze Haze  
Wind Chill: 55°   Ceiling: 500
Heat Index: 55°   Visibility: 3mi
Dew Point: 53°   Wind: 10mph
Humidity: 93%   Direction: 150°SSE
Pressure: 29.46"   Gusts: NA
Location:  37.73°N, 93.3°W
Report Text: KSGF 231709Z 15009KT 3SM BR OVC005 13/12 A2946 RMK AO2 T01280117
Loading
Personal Weather Stations






























Interactive Weather Map New forecast layout! Learn more

10-Day Weather Forecast

Advertisements
Track Severe Weather on mobile